createdAt,value
2019-03-01T00:00:02.165Z,6.1
2019-03-01T00:05:02.039Z,6.1
2019-03-01T00:10:01.648Z,6
2019-03-01T00:15:01.406Z,5.9
2019-03-01T00:20:01.493Z,5.9
2019-03-01T00:25:01.528Z,5.9
2019-03-01T00:30:01.172Z,5.9
2019-03-01T00:35:01.969Z,5.8
2019-03-01T00:40:01.792Z,5.7
2019-03-01T00:45:01.463Z,5.7
2019-03-01T00:50:02.046Z,5.7
2019-03-01T00:55:01.679Z,5.6
2019-03-01T01:00:01.758Z,5.6
2019-03-01T01:05:01.253Z,5.7
2019-03-01T01:10:02.479Z,5.7
2019-03-01T01:15:02.011Z,5.7
2019-03-01T01:20:01.603Z,5.7
2019-03-01T01:25:01.847Z,5.7
2019-03-01T01:30:02.078Z,5.7
2019-03-01T01:35:01.840Z,5.7
2019-03-01T01:40:01.370Z,5.7
2019-03-01T01:45:01.493Z,5.7
2019-03-01T01:50:02.034Z,5.7
2019-03-01T01:55:01.716Z,5.7
2019-03-01T02:00:02.149Z,5.7
2019-03-01T02:05:01.767Z,5.7
2019-03-01T02:10:01.852Z,5.7
2019-03-01T02:15:01.225Z,5.7
2019-03-01T02:20:02.326Z,5.7
2019-03-01T02:25:01.582Z,5.7
2019-03-01T02:30:01.374Z,5.6
2019-03-01T02:35:02.269Z,5.6
2019-03-01T02:40:01.941Z,5.6
2019-03-01T02:45:01.380Z,5.6
2019-03-01T02:50:01.428Z,5.6
2019-03-01T02:55:01.673Z,5.6
2019-03-01T03:00:02.066Z,5.6
2019-03-01T03:05:01.683Z,5.7
2019-03-01T03:10:02.114Z,5.7
2019-03-01T03:15:01.596Z,5.7
2019-03-01T03:20:02.140Z,5.7
2019-03-01T03:25:01.787Z,5.7
2019-03-01T03:30:01.766Z,5.7
2019-03-01T03:35:01.393Z,5.7
2019-03-01T03:40:01.515Z,5.6
2019-03-01T03:45:02.455Z,5.6
2019-03-01T03:50:01.864Z,5.5
2019-03-01T03:55:01.595Z,5.5
2019-03-01T04:00:01.344Z,5.4
2019-03-01T04:05:02.148Z,5.4
2019-03-01T04:10:02.111Z,5.4
2019-03-01T04:15:01.686Z,5.3
2019-03-01T04:20:01.839Z,5.2
2019-03-01T04:25:01.495Z,5.1
2019-03-01T04:30:02.092Z,5.2
2019-03-01T04:35:02.109Z,5.1
2019-03-01T04:40:02.265Z,5.1
2019-03-01T04:45:01.820Z,5.1
2019-03-01T04:50:01.990Z,5
2019-03-01T04:55:01.992Z,5
2019-03-01T05:00:01.547Z,4.9
2019-03-01T05:05:01.258Z,5
2019-03-01T05:10:02.113Z,5
2019-03-01T05:15:01.947Z,5
2019-03-01T05:20:01.849Z,5
2019-03-01T05:25:01.849Z,5
2019-03-01T05:30:02.536Z,5.1
2019-03-01T05:35:01.942Z,5.1
2019-03-01T05:40:01.500Z,5.1
2019-03-01T05:45:01.733Z,5.1
2019-03-01T05:50:01.887Z,5.1
2019-03-01T05:55:02.152Z,5
2019-03-01T06:00:01.958Z,5
2019-03-01T06:05:01.766Z,5
2019-03-01T06:10:01.771Z,5
2019-03-01T06:15:01.980Z,5
2019-03-01T06:20:01.513Z,5
2019-03-01T06:25:01.857Z,5
2019-03-01T06:30:02.219Z,4.9
2019-03-01T06:35:02.140Z,4.8
2019-03-01T06:40:01.410Z,4.9
2019-03-01T06:45:01.606Z,4.8
2019-03-01T06:50:01.873Z,4.8
2019-03-01T06:55:01.283Z,4.8
2019-03-01T07:00:01.931Z,4.8
2019-03-01T07:05:01.609Z,4.9
2019-03-01T07:10:01.239Z,4.9
2019-03-01T07:15:01.591Z,4.9
2019-03-01T07:20:01.612Z,4.9
2019-03-01T07:25:01.494Z,5
2019-03-01T07:30:01.608Z,5
2019-03-01T07:35:01.686Z,4.9
2019-03-01T07:40:02.129Z,4.8
2019-03-01T07:45:01.798Z,4.9
2019-03-01T07:50:02.099Z,4.9
2019-03-01T07:55:01.330Z,5
2019-03-01T08:00:02.172Z,5
2019-03-01T08:05:03.921Z,5
2019-03-01T08:10:02.121Z,5.1
2019-03-01T08:15:03.952Z,5.2
2019-03-01T08:20:01.372Z,5.2
2019-03-01T08:25:01.595Z,5.3
2019-03-01T08:30:01.892Z,5.3
2019-03-01T08:35:02.117Z,5.4
2019-03-01T08:40:01.270Z,5.5
2019-03-01T08:45:02.778Z,5.5
2019-03-01T08:50:01.280Z,5.5
2019-03-01T08:55:03.485Z,5.5
2019-03-01T09:00:02.410Z,5.5
2019-03-01T09:05:05.105Z,5.6
2019-03-01T09:10:01.853Z,5.6
2019-03-01T09:15:04.404Z,5.8
2019-03-01T09:20:02.079Z,5.9
2019-03-01T09:25:02.403Z,5.9
2019-03-01T09:30:03.453Z,6
2019-03-01T09:35:04.267Z,6
2019-03-01T09:40:05.355Z,6.1
2019-03-01T09:45:02.138Z,6.1
2019-03-01T09:50:02.253Z,6.2
2019-03-01T09:55:01.389Z,6.4
2019-03-01T10:00:01.970Z,6.5
2019-03-01T10:05:01.837Z,6.5
2019-03-01T10:10:01.948Z,6.5
2019-03-01T10:15:01.234Z,6.6
2019-03-01T10:20:02.025Z,6.6
2019-03-01T10:25:01.875Z,6.7
2019-03-01T10:30:01.918Z,6.8
2019-03-01T10:35:02.053Z,6.8
2019-03-01T10:40:02.013Z,6.9
2019-03-01T10:45:01.442Z,7
2019-03-01T10:50:01.523Z,7
2019-03-01T10:55:01.835Z,7
2019-03-01T11:00:02.086Z,7
2019-03-01T11:05:01.704Z,7
2019-03-01T11:10:01.669Z,7.1
2019-03-01T11:15:01.642Z,7.3
2019-03-01T11:20:01.641Z,7.3
2019-03-01T11:25:01.793Z,7.4
2019-03-01T11:30:02.020Z,7.5
2019-03-01T11:35:02.053Z,7.5
2019-03-01T11:40:02.103Z,7.5
2019-03-01T11:45:02.171Z,7.5
2019-03-01T11:50:01.733Z,7.6
2019-03-01T11:55:01.888Z,7.7
2019-03-01T12:00:01.900Z,7.7
2019-03-01T12:05:01.732Z,7.8
2019-03-01T12:10:01.990Z,7.8
2019-03-01T12:15:01.831Z,7.8
2019-03-01T12:20:02.113Z,7.8
2019-03-01T12:25:01.390Z,8
2019-03-01T12:30:02.061Z,8.2
2019-03-01T12:35:01.791Z,8.2
2019-03-01T12:40:01.841Z,8.2
2019-03-01T12:45:02.012Z,8.4
2019-03-01T12:50:02.174Z,8.4
2019-03-01T12:55:01.504Z,8.4
2019-03-01T13:00:02.100Z,8.4
2019-03-01T13:05:01.834Z,8.5
2019-03-01T13:10:02.725Z,8.5
2019-03-01T13:15:01.219Z,8.5
2019-03-01T13:20:02.528Z,8.6
2019-03-01T13:25:01.983Z,8.5
2019-03-01T13:30:01.273Z,8.6
2019-03-01T13:35:01.248Z,8.6
2019-03-01T13:40:02.137Z,8.6
2019-03-01T13:45:01.401Z,8.6
2019-03-01T13:50:05.372Z,8.7
2019-03-01T13:55:02.319Z,8.7
2019-03-01T14:00:01.735Z,8.6
2019-03-01T14:05:02.086Z,8.7
2019-03-01T14:10:04.653Z,8.7
2019-03-01T14:15:02.723Z,8.7
2019-03-01T14:20:02.201Z,8.6
2019-03-01T14:25:02.337Z,8.7
2019-03-01T14:30:01.680Z,8.6
2019-03-01T14:35:01.580Z,8.8
2019-03-01T14:40:01.709Z,8.7
2019-03-01T14:45:01.459Z,8.7
2019-03-01T14:50:02.013Z,8.4
2019-03-01T14:55:01.404Z,8.1
2019-03-01T15:00:02.181Z,7.7
2019-03-01T15:05:05.272Z,7.5
2019-03-01T15:10:01.649Z,7.3
2019-03-01T15:15:01.515Z,7.2
2019-03-01T15:20:01.599Z,7
2019-03-01T15:25:01.988Z,6.9
2019-03-01T15:30:01.650Z,6.8
2019-03-01T15:35:03.787Z,6.8
2019-03-01T15:40:01.870Z,6.7
2019-03-01T15:45:05.015Z,6.6
2019-03-01T15:50:01.506Z,6.6
2019-03-01T15:55:01.677Z,6.5
2019-03-01T16:00:02.162Z,6.5
2019-03-01T16:05:01.232Z,6.6
2019-03-01T16:10:02.195Z,6.4
2019-03-01T16:15:01.878Z,6.5
2019-03-01T16:20:01.596Z,6.5
2019-03-01T16:25:01.530Z,6.5
2019-03-01T16:30:01.579Z,6.5
2019-03-01T16:35:01.509Z,6.5
2019-03-01T16:40:01.757Z,6.4
2019-03-01T16:45:01.709Z,6.3
2019-03-01T16:50:02.678Z,6.2
2019-03-01T16:55:01.900Z,6.2
2019-03-01T17:00:01.221Z,6.2
2019-03-01T17:05:03.596Z,6.1
2019-03-01T17:10:01.694Z,6.1
2019-03-01T17:15:01.879Z,6.1
2019-03-01T17:20:03.583Z,6
2019-03-01T17:25:01.473Z,6
2019-03-01T17:30:01.870Z,5.9
2019-03-01T17:35:04.846Z,5.9
2019-03-01T17:40:01.596Z,5.9
2019-03-01T17:45:02.157Z,6
2019-03-01T17:50:02.190Z,6
2019-03-01T17:55:02.758Z,6
2019-03-01T18:00:01.645Z,6
2019-03-01T18:05:02.490Z,6
2019-03-01T18:10:01.668Z,6.1
2019-03-01T18:15:01.948Z,6.1
2019-03-01T18:20:02.727Z,6.1
2019-03-01T18:25:02.213Z,6.1
2019-03-01T18:30:01.505Z,6
2019-03-01T18:35:02.350Z,6
2019-03-01T18:40:01.690Z,6.1
2019-03-01T18:45:03.467Z,6
2019-03-01T18:50:02.056Z,6
2019-03-01T18:55:01.707Z,6
2019-03-01T19:00:02.469Z,6
2019-03-01T19:05:04.470Z,6
2019-03-01T19:10:02.027Z,6
2019-03-01T19:15:01.373Z,6
2019-03-01T19:20:05.589Z,6
2019-03-01T19:25:01.703Z,6
2019-03-01T19:30:01.970Z,6
2019-03-01T19:35:02.031Z,6
2019-03-01T19:40:02.401Z,6
2019-03-01T19:45:04.598Z,5.9
2019-03-01T19:50:01.592Z,5.9
2019-03-01T19:55:01.594Z,5.9
2019-03-01T20:00:01.664Z,5.8
2019-03-01T20:05:01.353Z,5.7
2019-03-01T20:10:01.690Z,5.7
2019-03-01T20:15:02.306Z,5.6
2019-03-01T20:20:02.181Z,5.6
2019-03-01T20:25:01.959Z,5.4
2019-03-01T20:30:01.629Z,5.4
2019-03-01T20:35:01.844Z,5.3
2019-03-01T20:40:01.808Z,5.2
2019-03-01T20:45:02.034Z,5.2
2019-03-01T20:50:03.517Z,5.1
2019-03-01T20:55:01.735Z,5.1
2019-03-01T21:00:01.908Z,5
2019-03-01T21:05:02.397Z,5
2019-03-01T21:10:02.288Z,4.9
2019-03-01T21:15:02.109Z,4.9
2019-03-01T21:20:01.646Z,4.8
2019-03-01T21:25:03.019Z,4.7
2019-03-01T21:30:01.716Z,4.6
2019-03-01T21:35:01.650Z,4.6
2019-03-01T21:40:03.145Z,4.6
2019-03-01T21:45:01.338Z,4.6
2019-03-01T21:50:03.845Z,4.5
2019-03-01T21:55:03.241Z,4.6
2019-03-01T22:00:01.157Z,4.6
2019-03-01T22:05:01.752Z,4.6
2019-03-01T22:10:01.476Z,4.6
2019-03-01T22:15:01.645Z,4.6
2019-03-01T22:20:01.686Z,4.7
2019-03-01T22:25:02.188Z,4.7
2019-03-01T22:30:02.285Z,4.7
2019-03-01T22:35:02.705Z,4.6
2019-03-01T22:40:01.279Z,4.6
2019-03-01T22:45:02.444Z,4.6
2019-03-01T22:50:03.945Z,4.6
2019-03-01T22:55:01.814Z,4.6
2019-03-01T23:00:02.274Z,4.5
2019-03-01T23:05:03.806Z,4.5
2019-03-01T23:10:01.289Z,4.5
2019-03-01T23:15:02.706Z,4.4
2019-03-01T23:20:02.174Z,4.4
2019-03-01T23:25:02.061Z,4.4
2019-03-01T23:30:01.942Z,4.4
2019-03-01T23:35:01.828Z,4.5
2019-03-01T23:40:02.393Z,4.5
2019-03-01T23:45:01.614Z,4.6
2019-03-01T23:50:02.168Z,4.5
2019-03-01T23:55:02.058Z,4.5
